createdAt,value
2022-10-23T00:01:33.851Z,1.20
2022-10-23T00:04:05.680Z,1.30
2022-10-23T00:06:37.249Z,1.42
2022-10-23T00:09:09.093Z,1.60
2022-10-23T00:11:41.561Z,1.52
2022-10-23T00:14:13.369Z,1.20
2022-10-23T00:16:44.859Z,1.67
2022-10-23T00:19:16.399Z,1.30
2022-10-23T00:21:47.893Z,1.85
2022-10-23T00:24:19.415Z,1.33
2022-10-23T00:26:50.996Z,1.40
2022-10-23T00:29:23.040Z,1.13
2022-10-23T00:31:54.541Z,1.43
2022-10-23T00:34:26.367Z,1.50
2022-10-23T00:36:57.935Z,1.50
2022-10-23T00:39:29.726Z,0.98
2022-10-23T00:42:01.234Z,1.25
2022-10-23T00:44:32.740Z,1.20
2022-10-23T00:47:04.212Z,1.00
2022-10-23T00:49:37.480Z,1.20
2022-10-23T00:52:10.936Z,1.50
2022-10-23T00:54:43.261Z,1.52
2022-10-23T00:57:14.778Z,1.38
2022-10-23T00:59:46.655Z,1.27
2022-10-23T01:02:18.271Z,1.25
2022-10-23T01:04:50.212Z,1.30
2022-10-23T01:07:22.214Z,1.13
2022-10-23T01:09:54.052Z,1.35
2022-10-23T01:12:25.582Z,1.35
2022-10-23T01:14:58.701Z,1.35
2022-10-23T01:17:30.228Z,0.90
2022-10-23T01:20:02.190Z,1.45
2022-10-23T01:22:33.864Z,1.40
2022-10-23T01:25:05.867Z,1.63
2022-10-23T01:27:37.361Z,1.48
2022-10-23T01:30:09.326Z,1.40
2022-10-23T01:32:41.059Z,1.10
2022-10-23T01:35:13.481Z,1.05
2022-10-23T01:37:45.042Z,2.03
2022-10-23T01:40:17.026Z,1.48
2022-10-23T01:42:48.541Z,1.40
2022-10-23T01:45:20.418Z,1.38
2022-10-23T01:47:51.988Z,1.67
2022-10-23T01:50:23.838Z,1.27
2022-10-23T01:52:55.336Z,1.20
2022-10-23T01:55:27.220Z,1.25
2022-10-23T01:57:59.066Z,1.52
2022-10-23T02:00:30.575Z,1.20
2022-10-23T02:03:04.950Z,1.48
2022-10-23T02:05:36.542Z,1.13
2022-10-23T02:08:08.427Z,1.50
2022-10-23T02:10:39.935Z,1.10
2022-10-23T02:13:11.855Z,1.40
2022-10-23T02:15:43.438Z,1.20
2022-10-23T02:18:15.302Z,1.50
2022-10-23T02:20:46.789Z,1.17
2022-10-23T02:23:18.719Z,1.05
2022-10-23T02:25:50.263Z,1.25
2022-10-23T02:28:22.280Z,1.30
2022-10-23T02:30:53.779Z,1.13
2022-10-23T02:33:27.650Z,1.58
2022-10-23T02:35:59.137Z,1.33
2022-10-23T02:38:30.967Z,1.20
2022-10-23T02:41:02.450Z,1.33
2022-10-23T02:43:34.247Z,1.30
2022-10-23T02:46:05.740Z,1.10
2022-10-23T02:48:37.260Z,1.20
2022-10-23T02:51:09.571Z,0.95
2022-10-23T02:53:41.603Z,1.40
2022-10-23T02:56:13.107Z,1.90
2022-10-23T02:58:44.640Z,1.55
2022-10-23T03:01:16.257Z,1.45
2022-10-23T03:03:48.186Z,1.20
2022-10-23T03:06:19.738Z,1.00
2022-10-23T03:08:51.587Z,1.17
2022-10-23T03:11:23.099Z,1.30
2022-10-23T03:13:54.946Z,1.45
2022-10-23T03:16:26.500Z,1.17
2022-10-23T03:18:58.072Z,1.00
2022-10-23T03:21:29.614Z,1.17
2022-10-23T03:24:01.451Z,1.65
2022-10-23T03:26:32.948Z,1.02
2022-10-23T03:29:04.471Z,1.02
2022-10-23T03:31:35.951Z,1.40
2022-10-23T03:34:11.368Z,1.55
2022-10-23T03:36:42.933Z,1.30
2022-10-23T03:39:14.883Z,1.65
2022-10-23T03:41:46.937Z,1.30
2022-10-23T03:44:18.444Z,1.30
2022-10-23T03:46:50.478Z,1.42
2022-10-23T03:49:21.976Z,1.10
2022-10-23T03:51:53.820Z,1.40
2022-10-23T03:54:25.399Z,1.50
2022-10-23T03:56:57.799Z,1.25
2022-10-23T03:59:29.460Z,1.40
2022-10-23T04:02:01.385Z,1.30
2022-10-23T04:04:33.032Z,1.20
2022-10-23T04:07:04.841Z,1.10
2022-10-23T04:09:36.437Z,1.30
2022-10-23T04:12:08.340Z,1.38
2022-10-23T04:14:39.845Z,1.40
2022-10-23T04:17:11.717Z,1.15
2022-10-23T04:19:43.203Z,1.20
2022-10-23T04:22:15.039Z,0.80
2022-10-23T04:24:48.029Z,1.17
2022-10-23T04:27:20.096Z,1.75
2022-10-23T04:29:54.279Z,1.20
2022-10-23T04:32:28.630Z,1.20
2022-10-23T04:35:00.206Z,1.35
2022-10-23T04:37:32.086Z,1.27
2022-10-23T04:40:03.686Z,1.42
2022-10-23T04:42:35.437Z,1.25
2022-10-23T04:45:06.930Z,1.38
2022-10-23T04:47:38.756Z,1.67
2022-10-23T04:50:10.241Z,1.40
2022-10-23T04:52:42.383Z,1.85
2022-10-23T04:55:13.985Z,1.77
2022-10-23T04:57:45.765Z,1.00
2022-10-23T05:00:17.261Z,1.20
2022-10-23T05:02:49.243Z,1.30
2022-10-23T05:05:20.728Z,1.33
2022-10-23T05:07:52.512Z,1.40
2022-10-23T05:10:24.006Z,1.55
2022-10-23T05:12:55.995Z,1.98
2022-10-23T05:15:27.508Z,1.60
2022-10-23T05:17:59.328Z,1.77
2022-10-23T05:20:30.822Z,1.65
2022-10-23T05:23:02.657Z,1.52
2022-10-23T05:25:34.182Z,1.73
2022-10-23T05:28:06.034Z,1.85
2022-10-23T05:30:37.517Z,1.63
2022-10-23T05:33:09.307Z,1.90
2022-10-23T05:35:40.799Z,1.23
2022-10-23T05:38:12.721Z,1.35
2022-10-23T05:40:44.226Z,2.60
2022-10-23T05:43:15.752Z,2.00
2022-10-23T05:45:47.545Z,2.15
2022-10-23T05:48:29.977Z,1.90
2022-10-23T05:51:06.008Z,1.75
2022-10-23T05:53:40.230Z,2.78
2022-10-23T05:56:14.354Z,1.67
2022-10-23T05:58:45.850Z,1.75
2022-10-23T06:01:18.715Z,2.20
2022-10-23T06:06:22.949Z,2.30
2022-10-23T06:08:54.446Z,1.75
2022-10-23T06:11:26.247Z,1.52
2022-10-23T06:16:34.589Z,1.92
2022-10-23T06:19:06.100Z,2.13
2022-10-23T06:21:37.655Z,1.95
2022-10-23T06:24:09.202Z,2.42
2022-10-23T06:26:41.211Z,2.55
2022-10-23T06:29:12.694Z,2.50
2022-10-23T06:31:44.535Z,2.38
2022-10-23T06:34:16.048Z,2.28
2022-10-23T06:36:47.537Z,1.88
2022-10-23T06:39:21.175Z,2.28
2022-10-23T06:41:53.029Z,2.47
2022-10-23T06:44:24.525Z,1.90
2022-10-23T06:46:56.335Z,1.83
2022-10-23T06:49:27.840Z,2.45
2022-10-23T06:51:59.660Z,1.80
2022-10-23T06:54:31.155Z,2.25
2022-10-23T06:57:03.017Z,2.40
2022-10-23T06:59:34.527Z,2.08
2022-10-23T07:02:06.075Z,2.00
2022-10-23T07:04:37.661Z,1.63
2022-10-23T07:07:09.450Z,1.45
2022-10-23T07:09:40.972Z,1.73
2022-10-23T07:12:12.883Z,1.88
2022-10-23T07:14:44.367Z,1.95
2022-10-23T07:17:16.410Z,2.00
2022-10-23T07:19:47.908Z,1.60
2022-10-23T07:22:19.730Z,1.80
2022-10-23T07:24:51.288Z,1.60
2022-10-23T07:27:23.036Z,1.73
2022-10-23T07:29:54.683Z,1.35
2022-10-23T07:32:28.663Z,1.90
2022-10-23T07:35:00.267Z,1.88
2022-10-23T07:37:32.159Z,1.50
2022-10-23T07:40:03.664Z,2.00
2022-10-23T07:42:35.623Z,2.00
2022-10-23T07:45:07.522Z,1.50
2022-10-23T07:47:39.475Z,1.70
2022-10-23T07:50:11.033Z,1.98
2022-10-23T07:52:42.831Z,1.42
2022-10-23T07:55:14.484Z,1.40
2022-10-23T07:57:46.290Z,1.58
2022-10-23T08:00:17.835Z,1.30
2022-10-23T08:02:49.746Z,1.67
2022-10-23T08:05:21.231Z,1.33
2022-10-23T08:07:53.086Z,1.27
2022-10-23T08:10:24.554Z,1.70
2022-10-23T08:12:56.348Z,1.85
2022-10-23T08:15:27.837Z,1.42
2022-10-23T08:17:59.835Z,1.60
2022-10-23T08:20:31.325Z,1.30
2022-10-23T08:23:03.156Z,1.77
2022-10-23T08:25:34.654Z,1.38
2022-10-23T08:28:06.421Z,0.93
2022-10-23T08:30:38.010Z,1.35
2022-10-23T08:33:09.975Z,1.48
2022-10-23T08:35:41.499Z,1.50
2022-10-23T08:38:13.397Z,1.77
2022-10-23T08:40:44.920Z,1.40
2022-10-23T08:43:16.893Z,1.10
2022-10-23T08:45:48.378Z,1.65
2022-10-23T08:48:20.357Z,1.23
2022-10-23T08:50:51.897Z,1.70
2022-10-23T08:53:23.419Z,1.23
2022-10-23T08:55:54.928Z,1.55
2022-10-23T08:58:27.001Z,1.30
2022-10-23T09:00:58.599Z,1.30
2022-10-23T09:03:30.572Z,1.23
2022-10-23T09:06:03.415Z,1.27
2022-10-23T09:08:34.930Z,1.13
2022-10-23T09:11:06.513Z,1.42
2022-10-23T09:13:38.327Z,1.05
2022-10-23T09:16:09.868Z,1.35
2022-10-23T09:18:41.806Z,0.90
2022-10-23T09:21:13.350Z,0.95
2022-10-23T09:23:44.924Z,1.23
2022-10-23T09:26:16.463Z,1.27
2022-10-23T09:28:48.471Z,1.08
2022-10-23T09:31:19.980Z,1.20
2022-10-23T09:33:51.510Z,1.30
2022-10-23T09:36:24.464Z,1.10
2022-10-23T09:41:27.913Z,0.80
2022-10-23T09:43:59.826Z,1.00
2022-10-23T09:46:31.323Z,0.80
2022-10-23T09:49:05.788Z,0.90
2022-10-23T09:51:42.127Z,1.20
2022-10-23T09:54:13.627Z,0.90
2022-10-23T09:56:45.659Z,1.20
2022-10-23T09:59:17.173Z,0.93
2022-10-23T10:01:49.192Z,1.05
2022-10-23T10:04:20.872Z,0.90
2022-10-23T10:06:52.761Z,1.10
2022-10-23T10:09:24.304Z,1.20
2022-10-23T10:11:57.158Z,0.98
2022-10-23T10:17:00.577Z,0.90
2022-10-23T10:19:32.100Z,1.20
2022-10-23T10:22:05.248Z,1.10
2022-10-23T10:24:36.766Z,1.48
2022-10-23T10:27:08.774Z,1.30
2022-10-23T10:29:40.276Z,1.40
2022-10-23T10:32:12.109Z,1.20
2022-10-23T10:34:43.629Z,0.88
2022-10-23T10:37:15.501Z,1.33
2022-10-23T10:39:46.998Z,1.00
2022-10-23T10:42:18.850Z,0.95
2022-10-23T10:44:50.335Z,0.90
2022-10-23T10:47:22.500Z,0.90
2022-10-23T10:49:54.046Z,1.23
2022-10-23T10:52:25.981Z,0.90
2022-10-23T10:54:57.463Z,0.70
2022-10-23T10:57:29.258Z,1.20
2022-10-23T11:00:00.757Z,1.10
2022-10-23T11:02:32.521Z,1.00
2022-10-23T11:05:04.008Z,1.13
2022-10-23T11:07:35.857Z,0.80
2022-10-23T11:10:07.680Z,0.70
2022-10-23T11:12:39.184Z,0.85
2022-10-23T11:15:10.996Z,1.17
2022-10-23T11:17:42.668Z,0.98
2022-10-23T11:20:14.619Z,0.70
2022-10-23T11:22:46.582Z,0.80
2022-10-23T11:25:18.606Z,0.90
2022-10-23T11:27:50.158Z,0.83
2022-10-23T11:30:21.990Z,1.25
2022-10-23T11:32:53.472Z,0.70
2022-10-23T11:35:25.467Z,0.90
2022-10-23T11:37:56.948Z,0.73
2022-10-23T11:40:30.057Z,0.60
2022-10-23T11:43:01.556Z,0.98
2022-10-23T11:45:33.455Z,0.60
2022-10-23T11:48:04.994Z,0.98
2022-10-23T11:50:36.792Z,0.70
2022-10-23T11:53:15.165Z,0.50
2022-10-23T11:55:47.916Z,0.70
2022-10-23T11:58:20.368Z,0.63
2022-10-23T12:00:52.317Z,0.73
2022-10-23T12:03:23.851Z,0.60
2022-10-23T12:08:32.226Z,0.80
2022-10-23T12:11:04.126Z,0.52
2022-10-23T12:13:35.616Z,0.80
2022-10-23T12:16:10.580Z,0.80
2022-10-23T12:18:42.081Z,0.45
2022-10-23T12:21:13.906Z,0.70
2022-10-23T12:23:48.077Z,0.50
2022-10-23T12:26:20.320Z,0.40
2022-10-23T12:28:51.842Z,0.40
2022-10-23T12:31:23.659Z,0.60
2022-10-23T12:33:55.183Z,0.85
2022-10-23T12:36:27.106Z,0.50
2022-10-23T12:38:58.760Z,0.77
2022-10-23T12:41:30.492Z,0.60
2022-10-23T12:44:01.978Z,0.77
2022-10-23T12:46:33.523Z,0.32
2022-10-23T12:49:05.091Z,0.60
2022-10-23T12:51:36.838Z,0.52
2022-10-23T12:54:08.328Z,0.68
2022-10-23T12:56:40.196Z,0.60
2022-10-23T12:59:11.714Z,0.47
2022-10-23T13:01:43.667Z,0.73
2022-10-23T13:04:15.622Z,0.80
2022-10-23T13:06:47.351Z,0.73
2022-10-23T13:09:18.854Z,1.05
2022-10-23T13:11:50.764Z,1.02
2022-10-23T13:14:22.273Z,0.70
2022-10-23T13:16:54.225Z,0.85
2022-10-23T13:19:27.391Z,0.93
2022-10-23T13:21:59.239Z,0.90
2022-10-23T13:24:31.215Z,1.08
2022-10-23T13:27:02.746Z,0.93
2022-10-23T13:29:34.694Z,0.80
2022-10-23T13:32:06.177Z,1.00
2022-10-23T13:34:37.989Z,1.23
2022-10-23T13:37:09.470Z,0.80
2022-10-23T13:39:41.312Z,1.02
2022-10-23T13:42:12.869Z,1.02
2022-10-23T13:44:44.705Z,1.00
2022-10-23T13:47:16.195Z,1.23
2022-10-23T13:49:48.051Z,0.80
2022-10-23T13:52:20.081Z,0.87
2022-10-23T13:54:52.024Z,0.70
2022-10-23T13:57:23.499Z,0.80
2022-10-23T13:59:55.452Z,0.90
2022-10-23T14:02:27.029Z,0.97
2022-10-23T14:04:58.989Z,0.88
2022-10-23T14:07:30.477Z,1.00
2022-10-23T14:10:02.287Z,0.70
2022-10-23T14:12:33.781Z,0.82
2022-10-23T14:15:08.165Z,1.25
2022-10-23T14:17:39.756Z,0.95
2022-10-23T14:20:11.283Z,1.02
2022-10-23T14:22:43.031Z,0.90
2022-10-23T14:25:14.791Z,1.00
2022-10-23T14:27:46.511Z,0.75
2022-10-23T14:30:18.076Z,0.80
2022-10-23T14:32:50.139Z,1.00
2022-10-23T14:35:21.941Z,0.97
2022-10-23T14:37:53.462Z,0.75
2022-10-23T14:40:25.740Z,1.00
2022-10-23T14:42:57.263Z,1.00
2022-10-23T14:45:30.112Z,0.90
2022-10-23T14:50:34.401Z,0.82
2022-10-23T14:53:05.897Z,0.70
2022-10-23T14:55:37.655Z,0.60
2022-10-23T14:58:09.188Z,0.90
2022-10-23T15:00:41.227Z,0.60
2022-10-23T15:03:12.740Z,0.77
2022-10-23T15:05:44.573Z,0.52
2022-10-23T15:08:16.053Z,0.65
2022-10-23T15:10:47.910Z,0.63
2022-10-23T15:13:19.500Z,0.57
2022-10-23T15:15:51.334Z,1.02
2022-10-23T15:18:23.142Z,0.80
2022-10-23T15:20:54.725Z,0.80
2022-10-23T15:23:26.405Z,0.95
2022-10-23T15:25:57.918Z,0.77
2022-10-23T15:28:29.820Z,0.60
2022-10-23T15:31:01.314Z,0.73
2022-10-23T15:33:33.153Z,0.75
2022-10-23T15:36:04.659Z,0.73
2022-10-23T15:38:36.528Z,0.85
2022-10-23T15:41:08.035Z,0.70
2022-10-23T15:43:39.983Z,0.95
2022-10-23T15:46:11.534Z,0.73
2022-10-23T15:48:43.568Z,0.90
2022-10-23T15:51:15.064Z,0.77
2022-10-23T15:53:46.909Z,0.73
2022-10-23T15:56:18.416Z,1.15
2022-10-23T15:58:50.232Z,0.55
2022-10-23T16:01:21.874Z,1.02
2022-10-23T16:03:53.964Z,0.90
2022-10-23T16:06:25.486Z,0.57
2022-10-23T16:08:57.474Z,0.70
2022-10-23T16:11:29.041Z,0.75
2022-10-23T16:14:00.942Z,0.80
2022-10-23T16:16:32.438Z,1.02
2022-10-23T16:19:04.713Z,0.70
2022-10-23T16:21:36.362Z,0.73
2022-10-23T16:24:08.321Z,0.90
2022-10-23T16:26:39.857Z,1.00
2022-10-23T16:29:11.720Z,0.57
2022-10-23T16:31:43.221Z,0.77
2022-10-23T16:34:15.163Z,1.00
2022-10-23T16:36:46.753Z,0.90
2022-10-23T16:39:18.787Z,0.95
2022-10-23T16:41:50.298Z,1.10
2022-10-23T16:44:22.318Z,0.70
2022-10-23T16:46:53.884Z,1.30
2022-10-23T16:49:25.536Z,1.10
2022-10-23T16:51:57.081Z,0.90
2022-10-23T16:54:28.874Z,1.00
2022-10-23T16:57:00.358Z,1.05
2022-10-23T16:59:32.185Z,1.00
2022-10-23T17:02:03.756Z,1.10
2022-10-23T17:04:35.801Z,0.88
2022-10-23T17:07:07.305Z,1.25
2022-10-23T17:09:39.128Z,0.93
2022-10-23T17:12:10.619Z,0.90
2022-10-23T17:14:42.284Z,1.15
2022-10-23T17:17:13.779Z,1.13
2022-10-23T17:19:46.623Z,1.17
2022-10-23T17:22:18.482Z,1.52
2022-10-23T17:24:53.198Z,1.00
2022-10-23T17:27:25.566Z,1.13
2022-10-23T17:29:57.705Z,1.00
2022-10-23T17:32:29.208Z,0.93
2022-10-23T17:35:01.021Z,1.13
2022-10-23T17:37:32.711Z,1.20
2022-10-23T17:40:06.020Z,1.30
2022-10-23T17:42:37.522Z,1.25
2022-10-23T17:45:09.059Z,1.10
2022-10-23T17:47:42.921Z,1.15
2022-10-23T17:50:14.460Z,1.40
2022-10-23T17:52:47.755Z,1.27
2022-10-23T17:55:19.490Z,0.82
2022-10-23T17:57:50.981Z,1.10
2022-10-23T18:00:22.936Z,1.00
2022-10-23T18:02:54.476Z,1.15
2022-10-23T18:05:26.352Z,1.38
2022-10-23T18:07:57.873Z,1.40
2022-10-23T18:10:29.478Z,1.20
2022-10-23T18:13:00.980Z,0.63
2022-10-23T18:15:32.809Z,0.93
2022-10-23T18:18:07.760Z,1.08
2022-10-23T18:20:39.904Z,1.20
2022-10-23T18:23:11.413Z,1.20
2022-10-23T18:25:42.960Z,1.40
2022-10-23T18:28:14.462Z,1.17
2022-10-23T18:30:47.238Z,0.93
2022-10-23T18:33:19.672Z,1.05
2022-10-23T18:35:51.612Z,1.10
2022-10-23T18:38:23.163Z,1.08
2022-10-23T18:40:55.432Z,1.20
2022-10-23T18:43:42.460Z,1.33
2022-10-23T18:46:15.096Z,1.13
2022-10-23T18:48:46.626Z,1.45
2022-10-23T18:51:18.131Z,1.20
2022-10-23T18:53:49.686Z,1.20
2022-10-23T18:56:22.804Z,1.20
2022-10-23T18:58:54.620Z,1.30
2022-10-23T19:01:27.160Z,0.93
2022-10-23T19:03:58.981Z,1.08
2022-10-23T19:06:30.503Z,0.88
2022-10-23T19:09:02.315Z,1.20
2022-10-23T19:11:33.859Z,1.10
2022-10-23T19:14:05.676Z,1.00
2022-10-23T19:16:37.167Z,0.80
2022-10-23T19:19:08.800Z,1.23
2022-10-23T19:21:40.299Z,1.25
2022-10-23T19:24:12.178Z,1.17
2022-10-23T19:26:43.692Z,1.15
2022-10-23T19:29:15.207Z,1.30
2022-10-23T19:31:49.070Z,1.40
2022-10-23T19:34:21.018Z,1.10
2022-10-23T19:36:52.541Z,1.15
2022-10-23T19:39:26.086Z,1.15
2022-10-23T19:41:58.471Z,1.17
2022-10-23T19:44:30.027Z,1.45
2022-10-23T19:47:02.356Z,1.10
2022-10-23T19:49:33.867Z,1.33
2022-10-23T19:52:05.363Z,1.13
2022-10-23T19:54:37.765Z,1.02
2022-10-23T19:57:09.254Z,1.00
2022-10-23T19:59:41.049Z,1.10
2022-10-23T20:02:12.682Z,1.15
2022-10-23T20:04:44.625Z,1.02
2022-10-23T20:07:16.119Z,1.10
2022-10-23T20:09:48.110Z,0.98
2022-10-23T20:12:19.633Z,1.25
2022-10-23T20:14:51.691Z,1.02
2022-10-23T20:17:23.243Z,0.90
2022-10-23T20:19:55.143Z,1.70
2022-10-23T20:22:26.681Z,1.30
2022-10-23T20:24:58.485Z,1.33
2022-10-23T20:27:30.021Z,1.38
2022-10-23T20:30:02.015Z,1.00
2022-10-23T20:32:33.523Z,1.38
2022-10-23T20:35:05.331Z,1.30
2022-10-23T20:37:36.836Z,1.10
2022-10-23T20:40:08.753Z,1.40
2022-10-23T20:42:40.313Z,1.13
2022-10-23T20:45:12.106Z,1.40
2022-10-23T20:47:43.900Z,1.38
2022-10-23T20:50:16.027Z,1.05
2022-10-23T20:52:47.524Z,1.58
2022-10-23T20:55:19.367Z,1.50
2022-10-23T20:57:51.286Z,1.42
2022-10-23T21:00:22.807Z,1.38
2022-10-23T21:02:55.036Z,1.30
2022-10-23T21:05:26.848Z,1.25
2022-10-23T21:07:58.711Z,1.52
2022-10-23T21:10:30.208Z,1.70
2022-10-23T21:13:02.179Z,1.20
2022-10-23T21:15:33.681Z,1.00
2022-10-23T21:18:27.187Z,1.00
2022-10-23T21:21:05.486Z,1.17
2022-10-23T21:23:37.310Z,1.33
2022-10-23T21:26:08.845Z,1.33
2022-10-23T21:28:47.275Z,1.27
2022-10-23T21:31:27.477Z,1.02
2022-10-23T21:33:59.408Z,1.65
2022-10-23T21:36:34.259Z,1.25
2022-10-23T21:39:11.664Z,1.27
2022-10-23T21:41:43.229Z,1.10
2022-10-23T21:44:15.067Z,1.15
2022-10-23T21:46:47.343Z,1.33
2022-10-23T21:49:18.823Z,1.73
2022-10-23T21:51:50.756Z,1.42
2022-10-23T21:54:22.256Z,1.83
2022-10-23T21:56:54.246Z,1.15
2022-10-23T21:59:27.728Z,1.42
2022-10-23T22:02:02.233Z,1.30
2022-10-23T22:04:33.800Z,1.15
2022-10-23T22:07:05.619Z,1.52
2022-10-23T22:09:37.122Z,1.55
2022-10-23T22:12:09.068Z,1.40
2022-10-23T22:14:40.675Z,1.33
2022-10-23T22:17:12.554Z,1.30
2022-10-23T22:19:44.095Z,1.38
2022-10-23T22:22:15.626Z,1.40
2022-10-23T22:24:47.126Z,1.45
2022-10-23T22:27:18.962Z,1.58
2022-10-23T22:29:50.497Z,1.40
2022-10-23T22:34:58.404Z,1.70
2022-10-23T22:37:29.915Z,1.38
2022-10-23T22:40:02.429Z,1.67
2022-10-23T22:42:33.996Z,1.42
2022-10-23T22:45:05.510Z,1.67
2022-10-23T22:47:37.480Z,1.60
2022-10-23T22:50:08.972Z,1.30
2022-10-23T22:52:40.777Z,1.40
2022-10-23T22:55:12.274Z,1.65
2022-10-23T22:57:44.315Z,1.20
2022-10-23T23:00:15.987Z,1.33
2022-10-23T23:02:47.875Z,1.30
2022-10-23T23:05:19.384Z,1.08
2022-10-23T23:07:51.599Z,1.48
2022-10-23T23:10:23.132Z,2.08
2022-10-23T23:12:54.934Z,1.42
2022-10-23T23:15:26.478Z,0.93
2022-10-23T23:17:58.293Z,1.15
2022-10-23T23:20:29.787Z,1.08
2022-10-23T23:23:01.605Z,1.20
2022-10-23T23:25:33.151Z,1.55
2022-10-23T23:28:05.041Z,1.10
2022-10-23T23:30:36.630Z,1.05
2022-10-23T23:33:08.535Z,1.10
2022-10-23T23:35:40.102Z,0.93
2022-10-23T23:38:12.034Z,1.25
2022-10-23T23:40:43.525Z,1.35
2022-10-23T23:43:15.282Z,0.95
2022-10-23T23:45:46.780Z,1.10
2022-10-23T23:48:18.723Z,1.38
2022-10-23T23:50:50.218Z,1.45
2022-10-23T23:53:22.216Z,1.33
2022-10-23T23:55:53.694Z,1.20
2022-10-23T23:58:25.558Z,1.42
